createdAt,value
2022-12-22T00:02:00.799Z,85883.03
2022-12-22T00:04:46.388Z,85908.56
2022-12-22T00:07:32.237Z,85907.78
2022-12-22T00:10:17.807Z,85880.22
2022-12-22T00:13:03.516Z,85888.59
2022-12-22T00:15:52.793Z,85894.16
2022-12-22T00:18:39.035Z,85872.09
2022-12-22T00:21:24.728Z,85908.63
2022-12-22T00:24:10.503Z,85910.75
2022-12-22T00:26:56.257Z,85896.84
2022-12-22T00:29:41.944Z,85904.59
2022-12-22T00:32:32.375Z,85876.34
2022-12-22T00:35:18.226Z,85868.69
2022-12-22T00:38:03.684Z,85899.22
2022-12-22T00:40:49.463Z,85857.06
2022-12-22T00:43:35.121Z,85837.75
2022-12-22T00:46:22.601Z,85826.66
2022-12-22T00:49:08.444Z,85909.47
2022-12-22T00:51:54.090Z,85879.28
2022-12-22T00:54:41.540Z,85868.22
2022-12-22T00:57:36.235Z,85886.78
2022-12-22T01:00:23.685Z,85893.03
2022-12-22T01:03:09.168Z,85866.84
2022-12-22T01:05:54.709Z,85894.44
2022-12-22T01:08:40.258Z,85896.41
2022-12-22T01:11:26.437Z,85854.44
2022-12-22T01:14:11.970Z,85845.44
2022-12-22T01:16:57.288Z,85854.53
2022-12-22T01:19:42.997Z,85853.78
2022-12-22T01:22:39.748Z,85873.84
2022-12-22T01:25:31.959Z,85836.59
2022-12-22T01:28:17.571Z,85862.88
2022-12-22T01:31:03.971Z,85831.81
2022-12-22T01:33:49.637Z,85873.94
2022-12-22T01:36:35.841Z,85867.81
2022-12-22T01:39:22.248Z,85854.56
2022-12-22T01:42:09.446Z,85876.75
2022-12-22T01:44:55.146Z,85850.44
2022-12-22T01:47:58.773Z,85833.88
2022-12-22T01:50:49.446Z,85843.78
2022-12-22T01:53:38.147Z,85847.97
2022-12-22T01:56:23.902Z,85831.34
2022-12-22T01:59:13.504Z,85852.75
2022-12-22T02:02:01.111Z,85834.91
2022-12-22T02:04:51.042Z,85830.06
2022-12-22T02:07:55.995Z,85802.44
2022-12-22T02:10:53.574Z,85846.66
2022-12-22T02:14:11.608Z,85818.38
2022-12-22T02:17:10.145Z,85823.22
2022-12-22T02:20:07.634Z,85824.50
2022-12-22T02:23:29.863Z,85840.34
2022-12-22T02:26:29.270Z,85814.78
2022-12-22T02:29:15.703Z,85803.13
2022-12-22T02:32:01.489Z,85797.00
2022-12-22T02:34:47.117Z,85831.59
2022-12-22T02:37:54.021Z,85831.63
2022-12-22T02:41:15.542Z,85809.56
2022-12-22T02:44:01.252Z,85832.94
2022-12-22T02:46:54.009Z,85829.53
2022-12-22T02:49:55.845Z,85831.53
2022-12-22T02:52:49.471Z,85803.97
2022-12-22T02:55:36.567Z,85819.31
2022-12-22T02:58:22.238Z,85794.31
2022-12-22T03:01:08.480Z,85795.66
2022-12-22T03:03:54.219Z,85806.59
2022-12-22T03:06:39.732Z,85812.22
2022-12-22T03:09:25.158Z,85818.31
2022-12-22T03:12:10.765Z,85803.81
2022-12-22T03:14:56.433Z,85814.84
2022-12-22T03:17:42.235Z,85827.38
2022-12-22T03:20:28.008Z,85770.75
2022-12-22T03:23:13.710Z,85831.53
2022-12-22T03:25:55.989Z,85799.03
2022-12-22T03:28:26.690Z,85839.75
2022-12-22T03:31:02.816Z,85833.56
2022-12-22T03:33:30.662Z,85818.38
2022-12-22T03:35:58.124Z,85815.56
2022-12-22T03:38:25.502Z,85817.06
2022-12-22T03:40:52.893Z,85817.72
2022-12-22T03:43:38.655Z,85826.69
2022-12-22T03:46:17.860Z,85832.94
2022-12-22T03:49:05.767Z,85799.19
2022-12-22T03:51:34.168Z,85788.09
2022-12-22T03:54:01.301Z,85833.00
2022-12-22T03:56:28.591Z,85813.00
2022-12-22T03:58:55.684Z,85831.59
2022-12-22T04:01:22.947Z,85817.78
2022-12-22T04:03:50.668Z,85812.25
2022-12-22T04:06:18.274Z,85805.41
2022-12-22T04:08:45.577Z,85792.22
2022-12-22T04:11:33.343Z,85781.28
2022-12-22T04:14:00.356Z,85789.69
2022-12-22T04:16:27.339Z,85784.81
2022-12-22T04:18:54.274Z,85790.50
2022-12-22T04:21:21.302Z,85796.00
2022-12-22T04:23:51.401Z,85809.72
2022-12-22T04:26:20.715Z,85797.31
2022-12-22T04:28:47.806Z,85815.31
2022-12-22T04:31:14.775Z,85773.25
2022-12-22T04:33:41.809Z,85801.50
2022-12-22T04:36:09.753Z,85808.53
2022-12-22T04:38:37.149Z,85783.03
2022-12-22T04:41:04.791Z,85816.75
2022-12-22T04:43:32.066Z,85789.09
2022-12-22T04:45:59.089Z,85814.63
2022-12-22T04:48:27.734Z,85818.78
2022-12-22T04:50:57.159Z,85787.72
2022-12-22T04:53:25.575Z,85824.94
2022-12-22T04:55:59.003Z,85817.41
2022-12-22T04:58:26.048Z,85818.09
2022-12-22T05:00:52.980Z,85818.84
2022-12-22T05:03:20.073Z,85791.25
2022-12-22T05:05:47.114Z,85785.09
2022-12-22T05:08:14.005Z,85816.72
2022-12-22T05:10:41.568Z,85785.03
2022-12-22T05:13:08.383Z,85803.66
2022-12-22T05:15:36.721Z,85773.91
2022-12-22T05:18:04.503Z,85796.16
2022-12-22T05:20:31.587Z,85782.19
2022-12-22T05:22:58.950Z,85812.63
2022-12-22T05:25:29.868Z,85799.47
2022-12-22T05:27:58.408Z,85806.47
2022-12-22T05:30:25.507Z,85814.63
2022-12-22T05:32:52.521Z,85816.72
2022-12-22T05:35:20.232Z,85808.50
2022-12-22T05:37:47.163Z,85784.34
2022-12-22T05:40:14.177Z,85769.94
2022-12-22T05:42:41.154Z,85803.06
2022-12-22T05:45:15.649Z,85816.88
2022-12-22T05:47:44.208Z,85810.00
2022-12-22T05:50:13.357Z,85814.22
2022-12-22T05:52:40.724Z,85787.97
2022-12-22T05:55:08.511Z,85819.69
2022-12-22T05:57:35.979Z,85801.66
2022-12-22T06:00:09.012Z,85825.06
2022-12-22T06:02:40.284Z,85821.66
2022-12-22T06:05:07.786Z,85786.47
2022-12-22T06:07:35.018Z,85830.63
2022-12-22T06:10:06.435Z,85819.56
2022-12-22T06:12:38.494Z,85838.16
2022-12-22T06:15:06.643Z,85829.06
2022-12-22T06:17:34.943Z,85808.47
2022-12-22T06:20:06.214Z,85833.34
2022-12-22T06:22:34.113Z,85822.81
2022-12-22T06:25:01.441Z,85840.19
2022-12-22T06:27:28.381Z,85838.84
2022-12-22T06:29:55.316Z,85834.66
2022-12-22T06:32:22.385Z,85847.03
2022-12-22T06:34:49.344Z,85762.31
2022-12-22T06:37:16.296Z,85818.06
2022-12-22T06:39:43.237Z,85785.69
2022-12-22T06:42:29.634Z,85852.50
2022-12-22T06:44:56.595Z,85829.13
2022-12-22T06:47:23.585Z,85825.72
2022-12-22T06:49:51.433Z,85810.56
2022-12-22T06:52:18.325Z,85851.22
2022-12-22T06:54:45.408Z,85847.88
2022-12-22T06:57:12.597Z,85844.56
2022-12-22T06:59:39.507Z,85821.88
2022-12-22T07:02:06.975Z,85831.56
2022-12-22T07:04:34.078Z,85846.78
2022-12-22T07:07:00.971Z,85848.13
2022-12-22T07:09:27.992Z,85848.13
2022-12-22T07:11:54.996Z,85857.13
2022-12-22T07:14:22.471Z,85854.41
2022-12-22T07:16:49.590Z,85833.28
2022-12-22T07:19:16.600Z,85820.09
2022-12-22T07:21:43.594Z,85819.56
2022-12-22T07:24:10.780Z,85842.47
2022-12-22T07:26:37.770Z,85842.50
2022-12-22T07:29:04.712Z,85838.56
2022-12-22T07:31:31.646Z,85816.47
2022-12-22T07:33:58.608Z,85822.63
2022-12-22T07:36:25.683Z,85824.59
2022-12-22T07:38:52.809Z,85841.09
2022-12-22T07:41:39.186Z,85835.72
2022-12-22T07:44:07.753Z,85838.56
2022-12-22T07:46:36.729Z,85793.94
2022-12-22T07:49:24.666Z,85829.22
2022-12-22T07:51:52.045Z,85807.38
2022-12-22T07:54:19.392Z,85829.50
2022-12-22T07:56:47.204Z,85828.16
2022-12-22T07:59:14.853Z,85822.06
2022-12-22T08:01:42.548Z,85821.47
2022-12-22T08:04:10.498Z,85821.56
2022-12-22T08:06:38.402Z,85734.91
2022-12-22T08:09:07.048Z,85798.28
2022-12-22T08:11:34.504Z,85780.44
2022-12-22T08:14:02.214Z,85796.31
2022-12-22T08:16:30.113Z,85825.22
2022-12-22T08:18:57.359Z,85823.25
2022-12-22T08:21:24.594Z,85829.50
2022-12-22T08:23:51.754Z,85825.38
2022-12-22T08:26:25.363Z,85821.97
2022-12-22T08:29:19.689Z,85820.63
2022-12-22T08:31:47.176Z,85811.03
2022-12-22T08:34:16.644Z,85824.78
2022-12-22T08:36:49.280Z,85823.41
2022-12-22T08:39:17.424Z,85803.44
2022-12-22T08:41:50.583Z,85758.78
2022-12-22T08:44:23.545Z,85815.84
2022-12-22T08:46:51.760Z,85797.28
2022-12-22T08:49:19.556Z,85810.34
2022-12-22T08:51:47.637Z,85790.41
2022-12-22T08:54:14.802Z,85773.91
2022-12-22T08:56:42.639Z,85804.16
2022-12-22T08:59:10.453Z,85782.13
2022-12-22T09:01:39.420Z,85795.16
2022-12-22T09:04:09.838Z,85795.84
2022-12-22T09:06:41.179Z,85791.72
2022-12-22T09:09:10.476Z,85769.69
2022-12-22T09:11:37.590Z,85769.00
2022-12-22T09:14:05.346Z,85761.41
2022-12-22T09:16:33.981Z,85758.63
2022-12-22T09:19:01.982Z,85757.88
2022-12-22T09:21:30.051Z,85681.63
2022-12-22T09:23:57.950Z,85680.22
2022-12-22T09:26:26.884Z,85777.59
2022-12-22T09:28:55.781Z,85713.03
2022-12-22T09:31:23.990Z,85735.59
2022-12-22T09:33:51.713Z,85770.53
2022-12-22T09:36:27.610Z,85743.66
2022-12-22T09:38:54.665Z,85746.38
2022-12-22T09:41:34.995Z,85744.22
2022-12-22T09:44:11.523Z,85760.56
2022-12-22T09:46:39.876Z,85709.75
2022-12-22T09:49:07.504Z,85757.66
2022-12-22T09:51:41.876Z,85756.88
2022-12-22T09:54:12.000Z,85731.38
2022-12-22T09:56:39.237Z,85745.63
2022-12-22T09:59:13.832Z,85720.19
2022-12-22T10:01:59.341Z,85728.22
2022-12-22T10:04:56.740Z,85713.06
2022-12-22T10:07:50.170Z,85743.81
2022-12-22T10:10:27.788Z,85745.78
2022-12-22T10:12:58.078Z,85711.41
2022-12-22T10:15:26.160Z,85702.41
2022-12-22T10:18:09.055Z,85738.53
2022-12-22T10:20:38.543Z,85737.03
2022-12-22T10:23:18.550Z,85735.53
2022-12-22T10:26:27.474Z,85729.84
2022-12-22T10:28:49.404Z,85728.38
2022-12-22T10:31:27.507Z,85726.13
2022-12-22T10:33:57.449Z,85722.66
2022-12-22T10:36:29.581Z,85721.16
2022-12-22T10:39:19.331Z,85671.69
2022-12-22T10:41:49.073Z,85674.25
2022-12-22T10:44:16.068Z,85706.88
2022-12-22T10:46:46.036Z,85705.38
2022-12-22T10:49:22.164Z,85703.94
2022-12-22T10:52:27.375Z,85699.00
2022-12-22T10:55:18.392Z,85701.69
2022-12-22T10:57:45.489Z,85692.66
2022-12-22T11:00:32.286Z,85654.34
2022-12-22T11:03:01.629Z,85680.28
2022-12-22T11:05:30.940Z,85691.91
2022-12-22T11:08:10.505Z,85671.78
2022-12-22T11:10:55.527Z,85681.91
2022-12-22T11:13:45.342Z,85676.91
2022-12-22T11:16:21.796Z,85663.91
2022-12-22T11:18:57.554Z,85680.22
2022-12-22T11:21:39.651Z,85673.25
2022-12-22T11:24:15.572Z,85667.53
2022-12-22T11:26:54.793Z,85668.06
2022-12-22T11:29:24.665Z,85658.28
2022-12-22T11:32:19.214Z,85663.13
2022-12-22T11:35:03.607Z,85660.31
2022-12-22T11:37:33.171Z,85659.53
2022-12-22T11:40:29.897Z,85641.72
2022-12-22T11:43:16.070Z,85663.59
2022-12-22T11:45:51.789Z,85656.75
2022-12-22T11:48:43.513Z,85662.25
2022-12-22T11:51:47.333Z,85653.19
2022-12-22T11:54:39.910Z,85656.59
2022-12-22T11:57:39.983Z,85646.25
2022-12-22T12:00:18.396Z,85649.81
2022-12-22T12:03:13.229Z,85659.44
2022-12-22T12:05:43.283Z,85655.34
2022-12-22T12:08:34.744Z,85631.63
2022-12-22T12:11:26.533Z,85643.00
2022-12-22T12:13:53.400Z,85647.91
2022-12-22T12:16:41.389Z,85654.88
2022-12-22T12:19:28.557Z,85651.63
2022-12-22T12:22:01.901Z,85647.44
2022-12-22T12:24:43.843Z,85653.13
2022-12-22T12:27:32.633Z,85649.78
2022-12-22T12:30:37.528Z,85660.19
2022-12-22T12:33:09.923Z,85653.88
2022-12-22T12:35:49.319Z,85656.41
2022-12-22T12:41:20.985Z,85642.97
2022-12-22T12:43:50.033Z,85628.28
2022-12-22T12:46:51.339Z,85657.59
2022-12-22T12:49:36.469Z,85663.69
2022-12-22T12:52:07.838Z,85660.91
2022-12-22T12:54:40.053Z,85659.56
2022-12-22T12:57:24.003Z,85667.25
2022-12-22T12:59:53.127Z,85613.69
2022-12-22T13:02:29.886Z,85661.53
2022-12-22T13:05:12.371Z,85665.03
2022-12-22T13:08:06.753Z,85665.03
2022-12-22T13:10:42.852Z,85666.66
2022-12-22T13:13:34.754Z,85653.81
2022-12-22T13:16:07.838Z,85669.75
2022-12-22T13:18:34.797Z,85665.91
2022-12-22T13:21:42.504Z,85668.81
2022-12-22T13:24:24.726Z,85661.53
2022-12-22T13:26:57.485Z,85656.50
2022-12-22T13:29:47.192Z,85662.28
2022-12-22T13:32:34.327Z,85664.59
2022-12-22T13:35:34.711Z,85627.22
2022-12-22T13:38:04.002Z,85659.69
2022-12-22T13:40:32.740Z,85639.97
2022-12-22T13:43:08.014Z,85655.22
2022-12-22T13:45:42.361Z,85630.66
2022-12-22T13:48:15.869Z,85663.00
2022-12-22T13:50:55.331Z,85620.56
2022-12-22T13:54:08.402Z,85659.09
2022-12-22T13:56:41.112Z,85655.72
2022-12-22T13:59:38.210Z,85655.16
2022-12-22T14:02:08.276Z,85651.09
2022-12-22T14:04:37.048Z,85591.50
2022-12-22T14:07:15.076Z,85655.31
2022-12-22T14:09:50.515Z,85641.63
2022-12-22T14:12:33.419Z,85648.50
2022-12-22T14:15:03.225Z,85648.53
2022-12-22T14:17:33.385Z,85609.50
2022-12-22T14:20:15.223Z,85606.06
2022-12-22T14:22:54.839Z,85621.91
2022-12-22T14:25:34.506Z,85647.34
2022-12-22T14:28:02.936Z,85622.66
2022-12-22T14:30:39.285Z,85646.69
2022-12-22T14:33:33.766Z,85623.38
2022-12-22T14:36:26.811Z,85649.47
2022-12-22T14:39:03.782Z,85651.56
2022-12-22T14:41:51.493Z,85596.59
2022-12-22T14:44:20.943Z,85638.53
2022-12-22T14:47:07.115Z,85635.09
2022-12-22T14:49:35.468Z,85621.38
2022-12-22T14:52:14.691Z,85566.44
2022-12-22T14:54:47.298Z,85641.97
2022-12-22T14:57:20.579Z,85589.75
2022-12-22T15:00:08.785Z,85629.59
2022-12-22T15:02:41.013Z,85645.38
2022-12-22T15:05:25.557Z,85647.44
2022-12-22T15:08:05.504Z,85648.13
2022-12-22T15:10:44.404Z,85598.66
2022-12-22T15:13:19.003Z,85613.06
2022-12-22T15:15:46.084Z,85600.72
2022-12-22T15:18:16.241Z,85604.84
2022-12-22T15:20:43.410Z,85639.84
2022-12-22T15:23:14.352Z,85639.88
2022-12-22T15:25:41.334Z,85604.81
2022-12-22T15:28:08.546Z,85610.97
2022-12-22T15:30:36.369Z,85654.94
2022-12-22T15:33:03.685Z,85659.78
2022-12-22T15:35:35.145Z,85663.84
2022-12-22T15:38:02.220Z,85622.63
2022-12-22T15:40:29.430Z,85651.47
2022-12-22T15:42:56.849Z,85655.63
2022-12-22T15:45:23.882Z,85665.22
2022-12-22T15:47:55.640Z,85662.47
2022-12-22T15:50:33.533Z,85533.97
2022-12-22T15:53:05.366Z,85658.31
2022-12-22T15:55:32.502Z,85654.19
2022-12-22T15:58:00.381Z,85662.41
2022-12-22T16:00:27.409Z,85655.50
2022-12-22T16:02:54.452Z,85666.47
2022-12-22T16:05:21.659Z,85658.22
2022-12-22T16:07:48.992Z,85600.50
2022-12-22T16:10:28.337Z,85632.09
2022-12-22T16:13:00.610Z,85647.16
2022-12-22T16:15:31.313Z,85612.75
2022-12-22T16:17:59.423Z,85663.63
2022-12-22T16:20:34.367Z,85627.88
2022-12-22T16:23:07.214Z,85631.91
2022-12-22T16:25:39.025Z,85649.09
2022-12-22T16:28:07.269Z,85597.47
2022-12-22T16:30:34.915Z,85620.91
2022-12-22T16:33:01.928Z,85609.84
2022-12-22T16:35:30.549Z,85562.41
2022-12-22T16:37:59.746Z,85621.56
2022-12-22T16:40:27.967Z,85558.31
2022-12-22T16:46:01.172Z,85660.78
2022-12-22T16:48:35.453Z,85663.41
2022-12-22T16:51:02.395Z,85594.63
2022-12-22T16:53:29.375Z,85665.47
2022-12-22T16:55:56.499Z,85589.78
2022-12-22T16:58:23.566Z,85658.56
2022-12-22T17:00:50.557Z,85661.28
2022-12-22T17:03:24.590Z,85659.19
2022-12-22T17:05:59.305Z,85666.69
2022-12-22T17:08:30.091Z,85621.97
2022-12-22T17:11:02.116Z,85660.50
2022-12-22T17:13:35.792Z,85577.97
2022-12-22T17:16:03.183Z,85659.09
2022-12-22T17:18:31.496Z,85631.63
2022-12-22T17:21:00.447Z,85656.34
2022-12-22T17:23:51.581Z,85654.97
2022-12-22T17:26:23.202Z,85612.91
2022-12-22T17:28:51.273Z,85619.06
2022-12-22T17:31:20.571Z,85632.16
2022-12-22T17:33:48.600Z,85652.13
2022-12-22T17:36:22.270Z,85650.69
2022-12-22T17:38:49.294Z,85652.13
2022-12-22T17:41:17.658Z,85637.00
2022-12-22T17:43:46.388Z,85616.94
2022-12-22T17:46:19.183Z,85658.94
2022-12-22T17:48:47.410Z,85600.25
2022-12-22T17:51:32.437Z,85613.50
2022-12-22T17:54:00.052Z,85632.00
2022-12-22T17:56:27.987Z,85658.75
2022-12-22T17:58:55.094Z,85652.59
2022-12-22T18:01:28.364Z,85648.56
2022-12-22T18:03:56.276Z,85607.94
2022-12-22T18:06:31.097Z,85612.78
2022-12-22T18:08:58.224Z,85642.38
2022-12-22T18:11:26.251Z,85552.81
2022-12-22T18:13:54.279Z,85638.19
2022-12-22T18:16:23.415Z,85596.25
2022-12-22T18:18:51.518Z,85618.94
2022-12-22T18:21:21.902Z,85632.75
2022-12-22T18:23:50.980Z,85629.94
2022-12-22T18:26:30.007Z,85626.44
2022-12-22T18:28:57.558Z,85627.78
2022-12-22T18:31:25.547Z,85616.00
2022-12-22T18:33:53.083Z,85592.72
2022-12-22T18:36:29.027Z,85637.34
2022-12-22T18:38:56.934Z,85627.78
2022-12-22T18:41:25.517Z,85629.84
2022-12-22T18:43:53.127Z,85623.06
2022-12-22T18:46:20.615Z,85623.09
2022-12-22T18:48:48.741Z,85623.09
2022-12-22T18:51:24.503Z,85623.00
2022-12-22T18:53:53.750Z,85635.91
2022-12-22T18:56:22.127Z,85589.06
2022-12-22T18:58:49.529Z,85639.38
2022-12-22T19:01:23.223Z,85625.63
2022-12-22T19:03:52.548Z,85642.09
2022-12-22T19:06:21.494Z,85614.56
2022-12-22T19:08:49.687Z,85627.66
2022-12-22T19:11:18.646Z,85583.66
2022-12-22T19:13:48.123Z,85651.69
2022-12-22T19:16:18.251Z,85593.78
2022-12-22T19:18:45.523Z,85624.13
2022-12-22T19:21:14.040Z,85656.31
2022-12-22T19:23:41.503Z,85663.84
2022-12-22T19:26:19.622Z,85643.91
2022-12-22T19:28:49.457Z,85642.41
2022-12-22T19:31:22.296Z,85614.94
2022-12-22T19:33:49.725Z,85633.53
2022-12-22T19:36:22.184Z,85650.78
2022-12-22T19:38:51.085Z,85634.84
2022-12-22T19:41:36.982Z,85616.97
2022-12-22T19:44:04.464Z,85615.63
2022-12-22T19:46:35.727Z,85590.81
2022-12-22T19:49:02.906Z,85623.97
2022-12-22T19:51:31.672Z,85633.63
2022-12-22T19:53:58.754Z,85639.81
2022-12-22T19:56:32.102Z,85632.94
2022-12-22T19:59:01.008Z,85628.03
2022-12-22T20:01:28.091Z,85630.91
2022-12-22T20:03:56.355Z,85629.56
2022-12-22T20:06:23.282Z,85630.88
2022-12-22T20:08:50.304Z,85606.13
2022-12-22T20:11:19.572Z,85601.25
2022-12-22T20:13:48.238Z,85635.00
2022-12-22T20:16:16.858Z,85593.03
2022-12-22T20:18:46.393Z,85633.66
2022-12-22T20:21:21.011Z,85634.91
2022-12-22T20:23:48.391Z,85573.06
2022-12-22T20:26:21.120Z,85632.19
2022-12-22T20:28:49.906Z,85634.25
2022-12-22T20:31:19.586Z,85637.69
2022-12-22T20:33:46.729Z,85637.63
2022-12-22T20:36:24.512Z,85629.50
2022-12-22T20:38:53.348Z,85597.78
2022-12-22T20:41:21.381Z,85628.09
2022-12-22T20:43:49.112Z,85592.31
2022-12-22T20:46:23.994Z,85615.75
2022-12-22T20:48:56.263Z,85595.06
2022-12-22T20:51:27.062Z,85569.56
2022-12-22T20:53:54.371Z,85629.44
2022-12-22T20:56:36.746Z,85621.13
2022-12-22T20:59:20.302Z,85630.03
2022-12-22T21:01:48.977Z,85627.97
2022-12-22T21:04:16.364Z,85609.97
2022-12-22T21:06:47.767Z,85611.19
2022-12-22T21:09:16.247Z,85600.38
2022-12-22T21:11:43.404Z,85623.81
2022-12-22T21:14:10.987Z,85600.34
2022-12-22T21:16:38.703Z,85622.44
2022-12-22T21:19:06.035Z,85628.66
2022-12-22T21:21:33.310Z,85598.28
2022-12-22T21:24:00.460Z,85600.41
2022-12-22T21:26:33.011Z,85610.00
2022-12-22T21:29:02.689Z,85633.41
2022-12-22T21:31:29.717Z,85630.69
2022-12-22T21:33:56.895Z,85594.25
2022-12-22T21:36:28.123Z,85616.34
2022-12-22T21:38:58.762Z,85620.91
2022-12-22T21:41:44.315Z,85630.59
2022-12-22T21:44:12.802Z,85629.16
2022-12-22T21:46:42.444Z,85620.22
2022-12-22T21:49:19.878Z,85626.31
2022-12-22T21:51:48.897Z,85621.44
2022-12-22T21:54:17.457Z,85647.59
2022-12-22T21:56:44.531Z,85638.78
2022-12-22T21:59:11.521Z,85601.50
2022-12-22T22:01:40.994Z,85631.81
2022-12-22T22:04:08.872Z,85642.84
2022-12-22T22:06:35.863Z,85623.63
2022-12-22T22:09:05.291Z,85636.00
2022-12-22T22:11:32.686Z,85630.56
2022-12-22T22:13:59.669Z,85602.44
2022-12-22T22:16:26.676Z,85598.94
2022-12-22T22:18:53.647Z,85583.84
2022-12-22T22:21:20.622Z,85617.69
2022-12-22T22:23:47.564Z,85615.59
2022-12-22T22:26:14.406Z,85567.44
2022-12-22T22:28:41.249Z,85581.25
2022-12-22T22:31:10.315Z,85600.50
2022-12-22T22:33:37.681Z,85596.41
2022-12-22T22:36:08.761Z,85588.81
2022-12-22T22:38:36.091Z,85596.47
2022-12-22T22:41:03.158Z,85597.75
2022-12-22T22:43:30.171Z,85592.28
2022-12-22T22:45:57.178Z,85589.53
2022-12-22T22:48:24.339Z,85564.75
2022-12-22T22:50:51.698Z,85581.97
2022-12-22T22:53:18.685Z,85548.34
2022-12-22T22:55:45.583Z,85568.94
2022-12-22T22:58:12.505Z,85539.34
2022-12-22T23:00:39.634Z,85529.06
2022-12-22T23:03:06.747Z,85566.97
2022-12-22T23:05:34.148Z,85581.28
2022-12-22T23:08:01.103Z,85579.88
2022-12-22T23:10:28.153Z,85563.41
2022-12-22T23:12:55.423Z,85552.38
2022-12-22T23:15:22.381Z,85546.88
2022-12-22T23:17:51.981Z,85564.88
2022-12-22T23:20:19.579Z,85575.78
2022-12-22T23:22:46.539Z,85573.06
2022-12-22T23:25:14.271Z,85557.97
2022-12-22T23:27:41.222Z,85564.91
2022-12-22T23:30:09.123Z,85573.78
2022-12-22T23:32:36.056Z,85553.81
2022-12-22T23:35:03.034Z,85512.56
2022-12-22T23:37:30.029Z,85535.94
2022-12-22T23:40:05.799Z,85567.53
2022-12-22T23:42:44.040Z,85560.72
2022-12-22T23:45:11.147Z,85555.19
2022-12-22T23:47:38.080Z,85557.28
2022-12-22T23:50:05.559Z,85522.84
2022-12-22T23:52:32.494Z,85561.38
2022-12-22T23:54:59.544Z,85524.88
2022-12-22T23:57:26.560Z,85537.22
2022-12-22T23:59:53.544Z,85539.22
